sensor_id;sensor_type;location;lat;lon;timestamp;temperature;humidity
12223;DHT22;6174;49.058;8.524;2024-02-04T07:08:08;8.90;99.90
12223;DHT22;6174;49.058;8.524;2024-02-04T07:13:18;8.70;99.90
12223;DHT22;6174;49.058;8.524;2024-02-04T07:16:04;8.80;99.90
12223;DHT22;6174;49.058;8.524;2024-02-04T07:18:37;8.70;99.90
12223;DHT22;6174;49.058;8.524;2024-02-04T07:21:33;8.80;99.90
12223;DHT22;6174;49.058;8.524;2024-02-04T07:31:06;8.80;99.90
12223;DHT22;6174;49.058;8.524;2024-02-04T07:33:33;8.90;99.90
12223;DHT22;6174;49.058;8.524;2024-02-04T07:36:00;8.90;99.90
12223;DHT22;6174;49.058;8.524;2024-02-04T07:38:26;8.90;99.90
12223;DHT22;6174;49.058;8.524;2024-02-04T07:40:53;9.00;99.90
12223;DHT22;6174;49.058;8.524;2024-02-04T07:43:21;8.90;99.90
12223;DHT22;6174;49.058;8.524;2024-02-04T07:45:48;9.00;99.90
12223;DHT22;6174;49.058;8.524;2024-02-04T07:48:16;9.00;99.90
12223;DHT22;6174;49.058;8.524;2024-02-04T07:50:45;9.00;99.90
12223;DHT22;6174;49.058;8.524;2024-02-04T07:53:11;9.10;99.90
12223;DHT22;6174;49.058;8.524;2024-02-04T07:55:38;9.10;99.90
12223;DHT22;6174;49.058;8.524;2024-02-04T07:58:05;9.10;99.90
12223;DHT22;6174;49.058;8.524;2024-02-04T08:00:32;9.10;99.90
12223;DHT22;6174;49.058;8.524;2024-02-04T08:02:58;9.00;99.90
12223;DHT22;6174;49.058;8.524;2024-02-04T08:05:26;9.00;99.90
12223;DHT22;6174;49.058;8.524;2024-02-04T08:07:54;9.00;99.90
12223;DHT22;6174;49.058;8.524;2024-02-04T08:10:21;9.00;99.90
12223;DHT22;6174;49.058;8.524;2024-02-04T08:12:47;9.10;99.90
12223;DHT22;6174;49.058;8.524;2024-02-04T08:15:16;9.10;99.90
12223;DHT22;6174;49.058;8.524;2024-02-04T08:17:43;9.10;99.90
12223;DHT22;6174;49.058;8.524;2024-02-04T08:20:11;9.10;99.90
12223;DHT22;6174;49.058;8.524;2024-02-04T08:22:39;9.00;99.90
12223;DHT22;6174;49.058;8.524;2024-02-04T08:25:06;9.00;99.90
12223;DHT22;6174;49.058;8.524;2024-02-04T08:27:35;9.00;99.90
12223;DHT22;6174;49.058;8.524;2024-02-04T08:30:03;9.10;99.90
12223;DHT22;6174;49.058;8.524;2024-02-04T08:32:30;9.10;99.90
12223;DHT22;6174;49.058;8.524;2024-02-04T08:34:57;9.10;99.90
12223;DHT22;6174;49.058;8.524;2024-02-04T08:37:23;9.10;99.90
12223;DHT22;6174;49.058;8.524;2024-02-04T08:39:51;9.10;99.90
12223;DHT22;6174;49.058;8.524;2024-02-04T08:42:18;9.10;99.90
12223;DHT22;6174;49.058;8.524;2024-02-04T08:44:45;9.10;99.90
12223;DHT22;6174;49.058;8.524;2024-02-04T08:47:12;9.20;99.90
12223;DHT22;6174;49.058;8.524;2024-02-04T08:49:41;9.10;99.90
12223;DHT22;6174;49.058;8.524;2024-02-04T08:52:08;9.20;99.90
12223;DHT22;6174;49.058;8.524;2024-02-04T08:54:35;9.20;99.90
12223;DHT22;6174;49.058;8.524;2024-02-04T08:57:03;9.30;99.90
12223;DHT22;6174;49.058;8.524;2024-02-04T08:59:29;9.20;99.90
12223;DHT22;6174;49.058;8.524;2024-02-04T09:01:56;9.30;99.90
12223;DHT22;6174;49.058;8.524;2024-02-04T09:04:23;9.30;99.90
12223;DHT22;6174;49.058;8.524;2024-02-04T09:06:51;9.40;99.90
12223;DHT22;6174;49.058;8.524;2024-02-04T09:09:18;9.30;99.90
12223;DHT22;6174;49.058;8.524;2024-02-04T09:11:44;9.40;99.90
12223;DHT22;6174;49.058;8.524;2024-02-04T09:14:12;9.40;99.90
12223;DHT22;6174;49.058;8.524;2024-02-04T09:16:39;9.40;99.90
12223;DHT22;6174;49.058;8.524;2024-02-04T09:19:06;9.50;99.90
12223;DHT22;6174;49.058;8.524;2024-02-04T09:21:33;9.50;99.90
12223;DHT22;6174;49.058;8.524;2024-02-04T09:23:59;9.40;99.90
12223;DHT22;6174;49.058;8.524;2024-02-04T09:26:26;9.50;99.90
12223;DHT22;6174;49.058;8.524;2024-02-04T09:28:53;9.50;99.90
12223;DHT22;6174;49.058;8.524;2024-02-04T09:31:21;9.50;99.90
12223;DHT22;6174;49.058;8.524;2024-02-04T09:33:48;9.50;99.90
12223;DHT22;6174;49.058;8.524;2024-02-04T09:36:14;9.60;99.90
12223;DHT22;6174;49.058;8.524;2024-02-04T09:38:41;9.60;99.90
12223;DHT22;6174;49.058;8.524;2024-02-04T09:41:08;9.60;99.90
12223;DHT22;6174;49.058;8.524;2024-02-04T09:43:35;9.70;99.90
12223;DHT22;6174;49.058;8.524;2024-02-04T09:46:03;9.70;99.90
12223;DHT22;6174;49.058;8.524;2024-02-04T09:48:32;9.70;99.90
12223;DHT22;6174;49.058;8.524;2024-02-04T09:50:59;9.60;99.90
12223;DHT22;6174;49.058;8.524;2024-02-04T09:53:32;9.60;99.90
12223;DHT22;6174;49.058;8.524;2024-02-04T09:56:01;9.60;99.90
12223;DHT22;6174;49.058;8.524;2024-02-04T09:58:29;9.60;99.90
12223;DHT22;6174;49.058;8.524;2024-02-04T10:00:55;9.60;99.90
12223;DHT22;6174;49.058;8.524;2024-02-04T10:03:22;9.70;99.90
12223;DHT22;6174;49.058;8.524;2024-02-04T10:05:51;9.70;99.90
12223;DHT22;6174;49.058;8.524;2024-02-04T10:08:17;9.70;99.90
12223;DHT22;6174;49.058;8.524;2024-02-04T10:10:45;9.70;99.90
12223;DHT22;6174;49.058;8.524;2024-02-04T10:13:11;9.70;99.90
12223;DHT22;6174;49.058;8.524;2024-02-04T10:15:38;9.70;99.90
12223;DHT22;6174;49.058;8.524;2024-02-04T10:18:06;9.70;99.90
12223;DHT22;6174;49.058;8.524;2024-02-04T10:20:33;9.70;99.90
12223;DHT22;6174;49.058;8.524;2024-02-04T10:23:01;9.70;99.90
12223;DHT22;6174;49.058;8.524;2024-02-04T10:25:28;9.70;99.90
12223;DHT22;6174;49.058;8.524;2024-02-04T10:27:54;9.70;99.90
12223;DHT22;6174;49.058;8.524;2024-02-04T10:30:22;9.60;99.90
12223;DHT22;6174;49.058;8.524;2024-02-04T10:32:50;9.60;99.90
12223;DHT22;6174;49.058;8.524;2024-02-04T10:35:17;9.60;99.90
12223;DHT22;6174;49.058;8.524;2024-02-04T10:37:44;9.60;99.90
12223;DHT22;6174;49.058;8.524;2024-02-04T10:40:13;9.60;99.90
12223;DHT22;6174;49.058;8.524;2024-02-04T10:42:42;9.60;99.90
12223;DHT22;6174;49.058;8.524;2024-02-04T10:45:10;9.50;99.90
12223;DHT22;6174;49.058;8.524;2024-02-04T10:47:38;9.50;99.90
12223;DHT22;6174;49.058;8.524;2024-02-04T10:50:06;9.40;99.90
12223;DHT22;6174;49.058;8.524;2024-02-04T10:52:36;9.40;99.90
12223;DHT22;6174;49.058;8.524;2024-02-04T10:55:07;9.40;99.90
12223;DHT22;6174;49.058;8.524;2024-02-04T10:57:35;9.40;99.90
12223;DHT22;6174;49.058;8.524;2024-02-04T11:00:02;9.50;99.90
12223;DHT22;6174;49.058;8.524;2024-02-04T11:02:34;9.50;99.90
12223;DHT22;6174;49.058;8.524;2024-02-04T11:05:03;9.60;99.90
12223;DHT22;6174;49.058;8.524;2024-02-04T11:07:32;9.60;99.90
12223;DHT22;6174;49.058;8.524;2024-02-04T11:09:59;9.60;99.90
12223;DHT22;6174;49.058;8.524;2024-02-04T11:12:27;9.60;99.90
12223;DHT22;6174;49.058;8.524;2024-02-04T11:15:00;9.60;99.90
12223;DHT22;6174;49.058;8.524;2024-02-04T11:23:48;9.60;99.90
12223;DHT22;6174;49.058;8.524;2024-02-04T11:26:18;9.60;99.90
12223;DHT22;6174;49.058;8.524;2024-02-04T11:28:45;9.50;99.90
12223;DHT22;6174;49.058;8.524;2024-02-04T11:31:17;9.70;99.90
12223;DHT22;6174;49.058;8.524;2024-02-04T11:33:44;9.70;99.90
12223;DHT22;6174;49.058;8.524;2024-02-04T11:36:13;9.70;99.90
12223;DHT22;6174;49.058;8.524;2024-02-04T11:38:40;9.80;99.90
12223;DHT22;6174;49.058;8.524;2024-02-04T11:41:08;9.80;99.90
12223;DHT22;6174;49.058;8.524;2024-02-04T11:43:36;9.80;99.90
12223;DHT22;6174;49.058;8.524;2024-02-04T11:46:03;9.90;99.90
12223;DHT22;6174;49.058;8.524;2024-02-04T11:48:33;10.00;99.90
12223;DHT22;6174;49.058;8.524;2024-02-04T11:51:04;10.00;99.90
12223;DHT22;6174;49.058;8.524;2024-02-04T11:53:31;10.00;99.90
12223;DHT22;6174;49.058;8.524;2024-02-04T11:55:59;9.90;99.90
12223;DHT22;6174;49.058;8.524;2024-02-04T11:58:27;10.10;99.90
12223;DHT22;6174;49.058;8.524;2024-02-04T12:00:54;10.00;99.90
12223;DHT22;6174;49.058;8.524;2024-02-04T12:03:28;10.10;99.90
12223;DHT22;6174;49.058;8.524;2024-02-04T12:05:57;10.10;99.90
12223;DHT22;6174;49.058;8.524;2024-02-04T12:08:25;10.10;99.90
12223;DHT22;6174;49.058;8.524;2024-02-04T12:10:53;10.10;99.90
12223;DHT22;6174;49.058;8.524;2024-02-04T12:13:19;10.10;99.90
12223;DHT22;6174;49.058;8.524;2024-02-04T12:15:47;10.20;99.90
12223;DHT22;6174;49.058;8.524;2024-02-04T12:18:14;10.20;99.90
12223;DHT22;6174;49.058;8.524;2024-02-04T12:20:46;10.20;99.90
12223;DHT22;6174;49.058;8.524;2024-02-04T12:23:15;10.20;99.90
12223;DHT22;6174;49.058;8.524;2024-02-04T12:25:43;10.20;99.90
12223;DHT22;6174;49.058;8.524;2024-02-04T12:28:10;10.20;99.90
12223;DHT22;6174;49.058;8.524;2024-02-04T12:30:37;10.20;99.90
12223;DHT22;6174;49.058;8.524;2024-02-04T12:33:04;10.20;99.90
12223;DHT22;6174;49.058;8.524;2024-02-04T12:35:31;10.30;99.90
12223;DHT22;6174;49.058;8.524;2024-02-04T12:37:59;10.30;99.90
12223;DHT22;6174;49.058;8.524;2024-02-04T12:40:28;10.40;99.90
12223;DHT22;6174;49.058;8.524;2024-02-04T12:42:56;10.30;99.90
12223;DHT22;6174;49.058;8.524;2024-02-04T12:45:23;10.30;99.90
12223;DHT22;6174;49.058;8.524;2024-02-04T12:47:51;10.30;99.90
12223;DHT22;6174;49.058;8.524;2024-02-04T12:50:18;10.30;99.90
12223;DHT22;6174;49.058;8.524;2024-02-04T12:52:45;10.40;99.90
12223;DHT22;6174;49.058;8.524;2024-02-04T12:55:23;10.40;99.90
12223;DHT22;6174;49.058;8.524;2024-02-04T12:58:01;10.40;99.90
12223;DHT22;6174;49.058;8.524;2024-02-04T13:00:29;10.40;99.90
12223;DHT22;6174;49.058;8.524;2024-02-04T13:02:56;10.30;99.90
12223;DHT22;6174;49.058;8.524;2024-02-04T13:05:25;10.30;99.90
12223;DHT22;6174;49.058;8.524;2024-02-04T13:07:54;10.30;99.90
12223;DHT22;6174;49.058;8.524;2024-02-04T13:10:23;10.30;99.90
12223;DHT22;6174;49.058;8.524;2024-02-04T13:12:59;10.30;99.90
12223;DHT22;6174;49.058;8.524;2024-02-04T13:15:27;10.30;99.90
12223;DHT22;6174;49.058;8.524;2024-02-04T13:17:54;10.40;99.90
12223;DHT22;6174;49.058;8.524;2024-02-04T13:20:21;10.40;99.90
12223;DHT22;6174;49.058;8.524;2024-02-04T13:22:48;10.40;99.90
12223;DHT22;6174;49.058;8.524;2024-02-04T13:25:14;10.40;99.90
12223;DHT22;6174;49.058;8.524;2024-02-04T13:27:41;10.40;99.90
12223;DHT22;6174;49.058;8.524;2024-02-04T13:30:10;10.50;99.90
12223;DHT22;6174;49.058;8.524;2024-02-04T13:32:38;10.50;99.90
12223;DHT22;6174;49.058;8.524;2024-02-04T13:35:06;10.60;99.90
12223;DHT22;6174;49.058;8.524;2024-02-04T13:37:35;10.50;99.90
12223;DHT22;6174;49.058;8.524;2024-02-04T13:40:03;10.40;99.90
12223;DHT22;6174;49.058;8.524;2024-02-04T13:42:31;10.50;99.90
12223;DHT22;6174;49.058;8.524;2024-02-04T13:44:58;10.50;99.90
12223;DHT22;6174;49.058;8.524;2024-02-04T13:47:26;10.40;99.90
12223;DHT22;6174;49.058;8.524;2024-02-04T13:49:53;10.40;99.90
12223;DHT22;6174;49.058;8.524;2024-02-04T13:52:20;10.40;99.90
12223;DHT22;6174;49.058;8.524;2024-02-04T13:54:47;10.40;99.90
12223;DHT22;6174;49.058;8.524;2024-02-04T13:57:13;10.40;99.90
12223;DHT22;6174;49.058;8.524;2024-02-04T13:59:40;10.40;99.90
12223;DHT22;6174;49.058;8.524;2024-02-04T14:02:07;10.40;99.90
12223;DHT22;6174;49.058;8.524;2024-02-04T14:04:35;10.30;99.90
12223;DHT22;6174;49.058;8.524;2024-02-04T14:07:02;10.30;99.90
12223;DHT22;6174;49.058;8.524;2024-02-04T14:09:29;10.40;99.90
12223;DHT22;6174;49.058;8.524;2024-02-04T14:11:56;10.40;99.90
12223;DHT22;6174;49.058;8.524;2024-02-04T14:14:23;10.50;99.90
12223;DHT22;6174;49.058;8.524;2024-02-04T14:16:50;10.50;99.90
12223;DHT22;6174;49.058;8.524;2024-02-04T14:19:17;10.40;99.90
12223;DHT22;6174;49.058;8.524;2024-02-04T14:21:45;10.40;99.90
12223;DHT22;6174;49.058;8.524;2024-02-04T14:24:12;10.50;99.90
12223;DHT22;6174;49.058;8.524;2024-02-04T14:26:39;10.40;99.90
12223;DHT22;6174;49.058;8.524;2024-02-04T14:29:07;10.40;99.90
12223;DHT22;6174;49.058;8.524;2024-02-04T14:31:34;10.50;99.90
12223;DHT22;6174;49.058;8.524;2024-02-04T14:34:01;10.40;99.90
12223;DHT22;6174;49.058;8.524;2024-02-04T14:36:28;10.40;99.90
12223;DHT22;6174;49.058;8.524;2024-02-04T14:38:57;10.40;99.90
12223;DHT22;6174;49.058;8.524;2024-02-04T14:41:24;10.50;99.90
12223;DHT22;6174;49.058;8.524;2024-02-04T14:43:50;10.50;99.90
12223;DHT22;6174;49.058;8.524;2024-02-04T14:46:17;10.50;99.90
12223;DHT22;6174;49.058;8.524;2024-02-04T14:48:44;10.50;99.90
12223;DHT22;6174;49.058;8.524;2024-02-04T14:51:11;10.50;99.90
12223;DHT22;6174;49.058;8.524;2024-02-04T14:53:37;10.40;99.90
12223;DHT22;6174;49.058;8.524;2024-02-04T14:56:06;10.40;99.90
12223;DHT22;6174;49.058;8.524;2024-02-04T14:58:35;10.40;99.90
12223;DHT22;6174;49.058;8.524;2024-02-04T15:01:01;10.40;99.90
12223;DHT22;6174;49.058;8.524;2024-02-04T15:03:28;10.50;99.90
12223;DHT22;6174;49.058;8.524;2024-02-04T15:05:55;10.40;99.90
12223;DHT22;6174;49.058;8.524;2024-02-04T15:08:21;10.40;99.90
12223;DHT22;6174;49.058;8.524;2024-02-04T15:10:48;10.40;99.90
12223;DHT22;6174;49.058;8.524;2024-02-04T15:13:17;10.30;99.90
12223;DHT22;6174;49.058;8.524;2024-02-04T15:15:44;10.30;99.90
12223;DHT22;6174;49.058;8.524;2024-02-04T15:18:12;10.30;99.90
12223;DHT22;6174;49.058;8.524;2024-02-04T15:20:39;10.30;99.90
12223;DHT22;6174;49.058;8.524;2024-02-04T15:23:07;10.30;99.90
12223;DHT22;6174;49.058;8.524;2024-02-04T15:25:34;10.30;99.90
12223;DHT22;6174;49.058;8.524;2024-02-04T15:28:01;10.30;99.90
12223;DHT22;6174;49.058;8.524;2024-02-04T15:30:32;10.30;99.90
12223;DHT22;6174;49.058;8.524;2024-02-04T15:32:59;10.30;99.90
12223;DHT22;6174;49.058;8.524;2024-02-04T15:35:26;10.30;99.90
12223;DHT22;6174;49.058;8.524;2024-02-04T15:37:53;10.30;99.90
12223;DHT22;6174;49.058;8.524;2024-02-04T15:40:23;10.40;99.90
12223;DHT22;6174;49.058;8.524;2024-02-04T15:42:50;10.40;99.90
12223;DHT22;6174;49.058;8.524;2024-02-04T15:45:17;10.40;99.90
12223;DHT22;6174;49.058;8.524;2024-02-04T15:47:49;10.30;99.90
12223;DHT22;6174;49.058;8.524;2024-02-04T15:50:18;10.30;99.90
12223;DHT22;6174;49.058;8.524;2024-02-04T15:52:45;10.30;99.90
12223;DHT22;6174;49.058;8.524;2024-02-04T15:55:13;10.30;99.90
12223;DHT22;6174;49.058;8.524;2024-02-04T15:57:42;10.30;99.90
12223;DHT22;6174;49.058;8.524;2024-02-04T16:00:12;10.30;99.90
12223;DHT22;6174;49.058;8.524;2024-02-04T16:02:43;10.30;99.90
12223;DHT22;6174;49.058;8.524;2024-02-04T16:05:13;10.30;99.90
12223;DHT22;6174;49.058;8.524;2024-02-04T16:07:41;10.30;99.90
12223;DHT22;6174;49.058;8.524;2024-02-04T16:10:10;10.30;99.90
12223;DHT22;6174;49.058;8.524;2024-02-04T16:12:37;10.30;99.90
12223;DHT22;6174;49.058;8.524;2024-02-04T16:15:06;10.30;99.90
12223;DHT22;6174;49.058;8.524;2024-02-04T16:17:37;10.30;99.90
12223;DHT22;6174;49.058;8.524;2024-02-04T16:20:05;10.30;99.90
12223;DHT22;6174;49.058;8.524;2024-02-04T16:22:34;10.30;99.90
12223;DHT22;6174;49.058;8.524;2024-02-04T16:25:01;10.30;99.90
12223;DHT22;6174;49.058;8.524;2024-02-04T16:27:27;10.30;99.90
12223;DHT22;6174;49.058;8.524;2024-02-04T16:29:54;10.30;99.90
12223;DHT22;6174;49.058;8.524;2024-02-04T16:32:21;10.30;99.90
12223;DHT22;6174;49.058;8.524;2024-02-04T16:34:47;10.30;99.90
12223;DHT22;6174;49.058;8.524;2024-02-04T16:37:14;10.30;99.90
12223;DHT22;6174;49.058;8.524;2024-02-04T16:39:42;10.30;99.90
12223;DHT22;6174;49.058;8.524;2024-02-04T16:42:09;10.30;99.90
12223;DHT22;6174;49.058;8.524;2024-02-04T16:44:36;10.30;99.90
12223;DHT22;6174;49.058;8.524;2024-02-04T16:47:03;10.30;99.90
12223;DHT22;6174;49.058;8.524;2024-02-04T16:49:30;10.30;99.90
12223;DHT22;6174;49.058;8.524;2024-02-04T16:51:57;10.30;99.90
12223;DHT22;6174;49.058;8.524;2024-02-04T16:54:23;10.30;99.90
12223;DHT22;6174;49.058;8.524;2024-02-04T16:56:55;10.30;99.90
12223;DHT22;6174;49.058;8.524;2024-02-04T16:59:50;10.30;99.90
12223;DHT22;6174;49.058;8.524;2024-02-04T17:09:32;10.20;99.90
12223;DHT22;6174;49.058;8.524;2024-02-04T17:15:09;10.20;99.90
12223;DHT22;6174;49.058;8.524;2024-02-04T17:18:12;10.30;99.90
12223;DHT22;6174;49.058;8.524;2024-02-04T17:27:48;10.20;99.90
12223;DHT22;6174;49.058;8.524;2024-02-04T17:42:39;10.20;99.90
12223;DHT22;6174;49.058;8.524;2024-02-04T17:45:26;10.20;99.90
12223;DHT22;6174;49.058;8.524;2024-02-04T18:04:27;10.30;99.90
12223;DHT22;6174;49.058;8.524;2024-02-04T18:07:09;10.20;99.90
12223;DHT22;6174;49.058;8.524;2024-02-04T18:09:54;10.20;99.90
12223;DHT22;6174;49.058;8.524;2024-02-04T18:12:31;10.30;99.90
12223;DHT22;6174;49.058;8.524;2024-02-04T18:15:33;10.20;99.90
12223;DHT22;6174;49.058;8.524;2024-02-04T18:21:39;10.20;99.90
12223;DHT22;6174;49.058;8.524;2024-02-04T18:24:26;10.20;99.90
12223;DHT22;6174;49.058;8.524;2024-02-04T18:33:57;10.20;99.90
12223;DHT22;6174;49.058;8.524;2024-02-04T18:36:31;10.20;99.90
12223;DHT22;6174;49.058;8.524;2024-02-04T18:45:23;10.20;99.90
12223;DHT22;6174;49.058;8.524;2024-02-04T18:48:28;10.20;99.90
12223;DHT22;6174;49.058;8.524;2024-02-04T18:50:55;10.20;99.90
12223;DHT22;6174;49.058;8.524;2024-02-04T18:53:29;10.50;99.90
12223;DHT22;6174;49.058;8.524;2024-02-04T18:56:18;10.60;99.90
12223;DHT22;6174;49.058;8.524;2024-02-04T18:58:54;10.20;99.90
12223;DHT22;6174;49.058;8.524;2024-02-04T19:01:34;10.10;99.90
12223;DHT22;6174;49.058;8.524;2024-02-04T19:04:27;10.10;99.90
12223;DHT22;6174;49.058;8.524;2024-02-04T19:06:54;10.10;99.90
12223;DHT22;6174;49.058;8.524;2024-02-04T19:09:37;10.10;99.90
12223;DHT22;6174;49.058;8.524;2024-02-04T19:12:22;10.10;99.90
12223;DHT22;6174;49.058;8.524;2024-02-04T19:17:19;10.10;99.90
12223;DHT22;6174;49.058;8.524;2024-02-04T19:19:46;10.10;99.90
12223;DHT22;6174;49.058;8.524;2024-02-04T19:22:13;10.10;99.90
12223;DHT22;6174;49.058;8.524;2024-02-04T19:24:40;10.00;99.90
12223;DHT22;6174;49.058;8.524;2024-02-04T19:27:12;10.10;99.90
12223;DHT22;6174;49.058;8.524;2024-02-04T19:29:40;10.10;99.90
12223;DHT22;6174;49.058;8.524;2024-02-04T19:32:07;10.10;99.90
12223;DHT22;6174;49.058;8.524;2024-02-04T19:34:34;10.00;99.90
12223;DHT22;6174;49.058;8.524;2024-02-04T19:37:03;9.90;99.90
12223;DHT22;6174;49.058;8.524;2024-02-04T19:39:30;9.90;99.90
12223;DHT22;6174;49.058;8.524;2024-02-04T19:41:57;9.80;99.90
12223;DHT22;6174;49.058;8.524;2024-02-04T19:44:26;9.80;99.90
12223;DHT22;6174;49.058;8.524;2024-02-04T19:46:53;9.70;99.90
12223;DHT22;6174;49.058;8.524;2024-02-04T19:49:20;9.70;99.90
12223;DHT22;6174;49.058;8.524;2024-02-04T19:51:49;9.70;99.90
12223;DHT22;6174;49.058;8.524;2024-02-04T19:54:16;9.70;99.90
12223;DHT22;6174;49.058;8.524;2024-02-04T19:56:44;9.90;99.90
12223;DHT22;6174;49.058;8.524;2024-02-04T19:59:10;9.60;99.90
12223;DHT22;6174;49.058;8.524;2024-02-04T20:01:39;9.60;99.90
12223;DHT22;6174;49.058;8.524;2024-02-04T20:04:06;9.60;99.90
12223;DHT22;6174;49.058;8.524;2024-02-04T20:06:32;9.50;99.90
12223;DHT22;6174;49.058;8.524;2024-02-04T20:08:59;9.50;99.90
12223;DHT22;6174;49.058;8.524;2024-02-04T20:11:27;9.50;99.90
12223;DHT22;6174;49.058;8.524;2024-02-04T20:13:54;9.50;99.90
12223;DHT22;6174;49.058;8.524;2024-02-04T20:16:20;9.60;99.90
12223;DHT22;6174;49.058;8.524;2024-02-04T20:18:48;9.60;99.90
12223;DHT22;6174;49.058;8.524;2024-02-04T20:21:18;9.60;99.90
12223;DHT22;6174;49.058;8.524;2024-02-04T20:23:45;9.60;99.90
12223;DHT22;6174;49.058;8.524;2024-02-04T20:26:11;9.60;99.90
12223;DHT22;6174;49.058;8.524;2024-02-04T20:28:38;9.50;99.90
12223;DHT22;6174;49.058;8.524;2024-02-04T20:31:05;9.50;99.90
12223;DHT22;6174;49.058;8.524;2024-02-04T20:33:33;9.60;99.90
12223;DHT22;6174;49.058;8.524;2024-02-04T20:36:01;9.60;99.90
12223;DHT22;6174;49.058;8.524;2024-02-04T20:38:29;9.60;99.90
12223;DHT22;6174;49.058;8.524;2024-02-04T20:40:56;9.60;99.90
12223;DHT22;6174;49.058;8.524;2024-02-04T20:43:23;9.60;99.90
12223;DHT22;6174;49.058;8.524;2024-02-04T20:45:50;9.60;99.90
12223;DHT22;6174;49.058;8.524;2024-02-04T20:48:16;9.60;99.90
12223;DHT22;6174;49.058;8.524;2024-02-04T20:50:43;9.60;99.90
12223;DHT22;6174;49.058;8.524;2024-02-04T20:53:11;9.60;99.90
12223;DHT22;6174;49.058;8.524;2024-02-04T20:55:40;9.60;99.90
12223;DHT22;6174;49.058;8.524;2024-02-04T20:58:06;9.50;99.90
12223;DHT22;6174;49.058;8.524;2024-02-04T21:00:33;9.50;99.90
12223;DHT22;6174;49.058;8.524;2024-02-04T21:03:00;9.50;99.90
12223;DHT22;6174;49.058;8.524;2024-02-04T21:05:27;9.50;99.90
12223;DHT22;6174;49.058;8.524;2024-02-04T21:07:54;9.60;99.90
12223;DHT22;6174;49.058;8.524;2024-02-04T21:10:22;9.50;99.90
12223;DHT22;6174;49.058;8.524;2024-02-04T21:12:49;9.50;99.90
12223;DHT22;6174;49.058;8.524;2024-02-04T21:15:17;9.50;99.90
12223;DHT22;6174;49.058;8.524;2024-02-04T21:17:44;9.40;99.90
12223;DHT22;6174;49.058;8.524;2024-02-04T21:20:11;9.50;99.90
12223;DHT22;6174;49.058;8.524;2024-02-04T21:22:38;9.50;99.90
12223;DHT22;6174;49.058;8.524;2024-02-04T21:25:06;9.50;99.90
12223;DHT22;6174;49.058;8.524;2024-02-04T21:27:34;9.50;99.90
12223;DHT22;6174;49.058;8.524;2024-02-04T21:30:01;9.50;99.90
12223;DHT22;6174;49.058;8.524;2024-02-04T21:32:29;9.50;99.90
12223;DHT22;6174;49.058;8.524;2024-02-04T21:34:57;9.50;99.90
12223;DHT22;6174;49.058;8.524;2024-02-04T21:37:23;9.40;99.90
12223;DHT22;6174;49.058;8.524;2024-02-04T21:39:50;9.50;99.90
12223;DHT22;6174;49.058;8.524;2024-02-04T21:42:17;9.50;99.90
12223;DHT22;6174;49.058;8.524;2024-02-04T21:44:45;9.50;99.90
12223;DHT22;6174;49.058;8.524;2024-02-04T21:47:12;9.50;99.90
12223;DHT22;6174;49.058;8.524;2024-02-04T21:49:44;9.40;99.90
12223;DHT22;6174;49.058;8.524;2024-02-04T21:52:11;9.50;99.90
12223;DHT22;6174;49.058;8.524;2024-02-04T21:54:39;9.40;99.90
12223;DHT22;6174;49.058;8.524;2024-02-04T21:57:06;9.40;99.90
12223;DHT22;6174;49.058;8.524;2024-02-04T21:59:33;9.40;99.90
12223;DHT22;6174;49.058;8.524;2024-02-04T22:02:01;9.40;99.90
12223;DHT22;6174;49.058;8.524;2024-02-04T22:04:27;9.40;99.90
12223;DHT22;6174;49.058;8.524;2024-02-04T22:06:54;9.40;99.90
12223;DHT22;6174;49.058;8.524;2024-02-04T22:15:33;9.40;99.90
12223;DHT22;6174;49.058;8.524;2024-02-04T22:45:33;9.30;99.90
12223;DHT22;6174;49.058;8.524;2024-02-04T22:53:23;9.30;99.90
12223;DHT22;6174;49.058;8.524;2024-02-04T22:58:45;9.30;99.90
12223;DHT22;6174;49.058;8.524;2024-02-04T23:01:51;9.30;99.90
12223;DHT22;6174;49.058;8.524;2024-02-04T23:04:24;9.20;99.90
12223;DHT22;6174;49.058;8.524;2024-02-04T23:07:14;9.20;99.90
12223;DHT22;6174;49.058;8.524;2024-02-04T23:09:59;9.10;99.90
12223;DHT22;6174;49.058;8.524;2024-02-04T23:18:39;9.00;99.90
